Time;durP1;ratioP1;P1;durP2;ratioP2;P2;SDS_P1;SDS_P2;PMS_P1;PMS_P2;Temp;Humidity;BMP_temperature;BMP_pressure;BME280_temperature;BME280_humidity;BME280_pressure;Samples;Min_cycle;Max_cycle;Signal;HPM_P1;HPM_P2
2021/12/02 05:44:40;;;;;;;1.73;0.70;;;;;;;17.27;52.16;100031.44;5265025;23;20082;-87
2021/12/02 05:47:06;;;;;;;1.55;0.60;;;;;;;17.28;52.26;100035.75;4977903;28;20153;-88
2021/12/02 05:49:31;;;;;;;1.80;0.70;;;;;;;17.30;52.18;100048.72;4962053;28;20066;-86
2021/12/02 05:51:57;;;;;;;1.42;0.52;;;;;;;17.31;52.08;100039.16;4961960;28;20038;-88
2021/12/02 05:54:22;;;;;;;2.38;0.50;;;;;;;17.30;52.09;100034.88;4961519;28;20035;-86
2021/12/02 05:56:47;;;;;;;1.90;0.60;;;;;;;17.31;52.11;100034.84;4961328;28;20473;-84
2021/12/02 05:59:13;;;;;;;2.00;0.52;;;;;;;17.31;52.11;100045.25;4961819;28;20042;-88
2021/12/02 06:01:42;;;;;;;2.67;0.60;;;;;;;17.30;52.27;100035.72;4960676;28;20046;-84
2021/12/02 06:04:08;;;;;;;1.88;0.60;;;;;;;17.31;52.07;100033.97;4977255;28;20043;-83
2021/12/02 06:06:34;;;;;;;1.45;0.60;;;;;;;17.30;52.01;100027.91;4960900;28;20041;-85
2021/12/02 06:08:59;;;;;;;10.98;0.90;;;;;;;17.41;52.24;100028.53;4976899;28;20035;-89
2021/12/02 06:11:25;;;;;;;7.57;1.27;;;;;;;17.38;52.47;100033.81;4961134;28;20416;-79
2021/12/02 06:13:50;;;;;;;3.95;1.30;;;;;;;17.36;52.44;100032.16;4976712;28;20034;-79
2021/12/02 06:16:15;;;;;;;5.05;1.15;;;;;;;17.33;52.39;100027.84;4976841;28;20138;-84
2021/12/02 06:18:41;;;;;;;4.55;1.27;;;;;;;17.32;51.98;100020.94;4976969;28;20054;-87
2021/12/02 06:21:06;;;;;;;5.20;1.38;;;;;;;17.31;52.04;100024.44;4960593;28;20038;-82
2021/12/02 06:23:32;;;;;;;5.10;1.55;;;;;;;17.31;52.34;100040.06;4976377;28;20137;-81
2021/12/02 06:25:57;;;;;;;4.38;1.60;;;;;;;17.31;52.32;100036.56;4976223;28;20042;-80
2021/12/02 06:28:23;;;;;;;8.07;1.80;;;;;;;17.35;52.65;100062.47;4960261;28;20039;-76
2021/12/02 06:30:48;;;;;;;8.65;2.33;;;;;;;17.48;52.64;100063.06;4960369;28;20396;-80
2021/12/02 06:33:14;;;;;;;13.25;2.55;;;;;;;17.57;52.69;100065.50;4976172;28;20445;-79
2021/12/02 06:35:41;;;;;;;8.30;2.65;;;;;;;17.61;52.55;100066.28;4977202;28;20027;-87
2021/12/02 06:38:08;;;;;;;6.55;2.40;;;;;;;17.64;52.67;100063.63;4961138;28;20038;-87
2021/12/02 06:40:35;;;;;;;8.30;3.60;;;;;;;17.67;52.63;100066.13;4977714;28;20026;-89
2021/12/02 06:43:02;;;;;;;11.30;2.65;;;;;;;17.67;52.51;100066.13;4961837;28;20103;-88
2021/12/02 06:45:27;;;;;;;8.70;2.47;;;;;;;17.69;52.30;100070.41;4980525;28;20039;-89
2021/12/02 06:47:57;;;;;;;5.50;2.00;;;;;;;17.71;52.49;100072.16;4978638;28;20098;-89
2021/12/02 06:50:23;;;;;;;9.05;2.30;;;;;;;17.69;52.48;100077.38;4977195;28;20121;-89
2021/12/02 06:52:50;;;;;;;8.95;2.17;;;;;;;17.70;52.52;100079.06;4946569;28;20066;-89
2021/12/02 06:55:16;;;;;;;6.63;2.58;;;;;;;17.73;52.60;100101.59;4946605;28;20042;-88
2021/12/02 06:57:42;;;;;;;5.60;2.35;;;;;;;17.73;52.41;100106.78;4962989;28;20043;-90
2021/12/02 07:00:11;;;;;;;5.75;2.40;;;;;;;17.73;52.36;100128.47;4961368;28;20118;-90
2021/12/02 07:02:37;;;;;;;6.07;1.88;;;;;;;17.72;52.69;100124.13;4977455;28;20089;-78
2021/12/02 07:05:04;;;;;;;8.38;2.20;;;;;;;17.72;52.56;100128.50;4975540;28;20066;-80
2021/12/02 07:07:36;;;;;;;5.85;2.15;;;;;;;17.73;52.44;100119.81;4959898;28;20485;-79
2021/12/02 07:10:07;;;;;;;6.57;1.88;;;;;;;17.73;52.40;100125.00;4945366;28;20480;-79
2021/12/02 07:12:34;;;;;;;4.50;2.03;;;;;;;17.74;52.13;100117.16;4975478;28;20058;-79
2021/12/02 07:15:06;;;;;;;5.18;1.98;;;;;;;17.74;52.27;100114.53;4959376;28;20117;-77
2021/12/02 07:17:32;;;;;;;5.38;1.75;;;;;;;17.74;52.67;100114.53;4976572;28;20035;-79
2021/12/02 07:20:00;;;;;;;5.28;1.88;;;;;;;17.75;52.41;100123.22;4959106;28;20039;-77
2021/12/02 07:22:25;;;;;;;5.55;1.75;;;;;;;17.74;52.61;100122.34;4975429;28;20039;-77
2021/12/02 07:24:50;;;;;;;5.03;1.90;;;;;;;17.75;52.41;100124.09;4959078;28;20034;-78
2021/12/02 07:27:16;;;;;;;4.35;2.00;;;;;;;17.76;52.43;100130.13;4943149;28;20039;-77
2021/12/02 07:29:41;;;;;;;3.65;1.70;;;;;;;17.77;52.41;100145.72;4958830;28;20062;-79
2021/12/02 07:32:10;;;;;;;3.67;1.70;;;;;;;17.76;52.14;100137.94;4975162;28;20046;-78
2021/12/02 07:34:40;;;;;;;6.90;1.75;;;;;;;17.76;52.13;100146.59;4958962;28;20041;-79
2021/12/02 07:37:07;;;;;;;4.65;1.60;;;;;;;17.77;52.27;100135.31;4975511;28;20027;-78
2021/12/02 07:39:33;;;;;;;3.38;1.52;;;;;;;17.77;52.30;100126.63;4975317;28;20079;-78
2021/12/02 07:42:01;;;;;;;4.47;1.90;;;;;;;17.76;52.44;100141.41;4975054;28;20428;-78
2021/12/02 07:44:26;;;;;;;3.30;1.80;;;;;;;17.77;52.09;100148.34;4959206;28;20051;-81
2021/12/02 07:46:52;;;;;;;3.72;1.55;;;;;;;17.78;52.23;100147.44;4942721;28;20045;-82
2021/12/02 07:49:17;;;;;;;4.32;1.75;;;;;;;17.78;52.17;100170.00;4959032;28;20058;-79
2021/12/02 07:51:44;;;;;;;5.72;1.60;;;;;;;17.79;52.08;100195.13;4974762;28;20057;-79
2021/12/02 07:54:12;;;;;;;3.08;1.50;;;;;;;17.80;51.94;100199.47;4974520;28;20440;-80
2021/12/02 07:56:38;;;;;;;3.67;1.60;;;;;;;17.80;51.98;100200.31;4942868;28;20030;-79
2021/12/02 07:59:06;;;;;;;4.85;1.67;;;;;;;17.79;51.93;100208.13;4957995;28;20492;-80
2021/12/02 08:01:35;;;;;;;3.08;1.33;;;;;;;17.79;52.08;100201.22;4958567;28;20042;-80
2021/12/02 08:04:03;;;;;;;3.08;1.33;;;;;;;17.80;52.10;100204.66;4958548;28;20042;-78
2021/12/02 08:06:29;;;;;;;3.55;1.30;;;;;;;17.79;52.35;100193.41;4974624;28;20039;-80
2021/12/02 08:08:58;;;;;;;3.08;1.42;;;;;;;17.80;52.25;100191.66;4942234;28;20112;-83
2021/12/02 08:11:26;;;;;;;3.00;1.27;;;;;;;17.81;52.08;100198.56;4958297;28;20030;-82
2021/12/02 08:13:56;;;;;;;4.25;1.23;;;;;;;17.81;52.12;100190.75;4958969;28;20035;-79
2021/12/02 08:16:23;;;;;;;3.25;1.52;;;;;;;17.86;51.89;100184.59;4942981;28;20378;-77
2021/12/02 08:18:48;;;;;;;2.83;1.27;;;;;;;17.87;51.94;100183.69;4958708;28;20054;-78
2021/12/02 08:21:14;;;;;;;3.63;1.38;;;;;;;17.86;51.94;100183.75;4974174;28;20042;-76
2021/12/02 08:23:39;;;;;;;3.17;1.40;;;;;;;17.84;52.00;100191.59;4942202;28;20038;-76
2021/12/02 08:26:05;;;;;;;4.22;1.17;;;;;;;17.85;52.33;100203.69;4957996;28;20039;-79
2021/12/02 08:28:30;;;;;;;2.20;1.23;;;;;;;17.85;52.14;100208.91;4958027;28;20038;-76
2021/12/02 08:30:57;;;;;;;3.05;1.23;;;;;;;17.85;52.12;100211.50;4973858;28;20047;-76
2021/12/02 08:33:23;;;;;;;3.67;1.15;;;;;;;17.86;52.21;100213.22;4958182;28;20133;-76
2021/12/02 08:35:49;;;;;;;5.13;1.38;;;;;;;17.87;52.29;100216.69;4941827;28;20066;-76
2021/12/02 08:38:17;;;;;;;3.53;1.40;;;;;;;17.87;52.09;100214.94;4975059;28;20027;-75
2021/12/02 08:40:44;;;;;;;3.53;1.20;;;;;;;17.88;52.15;100228.81;4958032;28;20077;-76
2021/12/02 08:43:13;;;;;;;6.28;1.65;;;;;;;17.88;51.92;100231.44;4974948;28;20030;-76
2021/12/02 08:45:40;;;;;;;3.10;1.50;;;;;;;17.91;52.40;100240.91;4973556;28;20053;-77
2021/12/02 08:48:07;;;;;;;3.65;1.20;;;;;;;17.92;51.83;100235.69;4973567;28;20126;-76
2021/12/02 08:50:34;;;;;;;2.08;1.17;;;;;;;17.93;51.99;100226.13;4973540;28;20150;-76
2021/12/02 08:53:01;;;;;;;2.65;1.15;;;;;;;17.93;51.76;100229.56;4973615;28;20069;-76
2021/12/02 08:55:29;;;;;;;4.03;1.20;;;;;;;17.93;51.83;100226.13;4973560;28;20042;-75
2021/12/02 08:57:56;;;;;;;2.60;1.10;;;;;;;17.94;51.83;100226.06;4957758;28;20042;-77
2021/12/02 09:00:27;;;;;;;2.22;1.13;;;;;;;17.95;51.78;100230.41;4973390;28;20031;-76
2021/12/02 09:02:54;;;;;;;3.30;1.00;;;;;;;17.97;51.66;100233.00;4975008;28;20046;-76
2021/12/02 09:05:19;;;;;;;2.30;1.17;;;;;;;17.95;51.76;100230.41;4973373;28;20039;-76
2021/12/02 09:07:45;;;;;;;3.63;1.13;;;;;;;17.97;51.59;100233.00;4973678;28;20038;-77
2021/12/02 09:10:11;;;;;;;2.47;1.10;;;;;;;17.99;51.63;100232.06;4974346;28;20037;-76
2021/12/02 09:12:37;;;;;;;2.55;1.10;;;;;;;18.03;51.60;100235.44;4957068;28;20031;-76
2021/12/02 09:15:04;;;;;;;2.67;1.10;;;;;;;18.07;51.27;100232.75;4973620;28;20039;-76
2021/12/02 09:17:29;;;;;;;1.83;0.90;;;;;;;18.11;51.38;100235.28;4957610;28;20035;-75
2021/12/02 09:19:55;;;;;;;3.55;1.05;;;;;;;18.06;51.19;100261.44;4941375;28;20031;-75
2021/12/02 09:22:21;;;;;;;2.92;1.17;;;;;;;18.03;51.48;100283.19;4941343;28;20030;-77
2021/12/02 09:24:46;;;;;;;1.67;0.90;;;;;;;18.02;51.62;100286.66;4957122;28;20054;-77
2021/12/02 09:27:12;;;;;;;2.38;1.00;;;;;;;18.05;51.32;100298.75;4957086;28;20504;-75
2021/12/02 09:29:37;;;;;;;2.80;1.10;;;;;;;18.03;51.41;100310.94;4973237;28;20134;-75
2021/12/02 09:32:04;;;;;;;2.53;1.13;;;;;;;18.00;51.62;100314.47;4957157;28;20042;-76
2021/12/02 09:34:29;;;;;;;4.50;1.17;;;;;;;17.99;51.64;100311.91;4941361;28;20496;-76
2021/12/02 09:36:56;;;;;;;3.00;1.08;;;;;;;17.96;51.61;100319.75;4973222;28;20046;-76
2021/12/02 09:39:21;;;;;;;4.53;1.10;;;;;;;17.94;51.66;100321.53;4957162;28;20035;-76
2021/12/02 09:41:47;;;;;;;1.92;1.10;;;;;;;17.92;51.79;100318.09;4940886;28;20053;-76
2021/12/02 09:44:14;;;;;;;1.83;0.90;;;;;;;17.90;51.72;100318.16;4956903;28;20059;-76
2021/12/02 09:46:42;;;;;;;1.95;0.88;;;;;;;17.87;51.89;100326.84;4957132;28;20035;-75
2021/12/02 09:49:11;;;;;;;2.15;1.00;;;;;;;17.85;52.06;100323.41;4974237;28;20035;-79
2021/12/02 09:57:14;;;;;;;2.50;1.02;;;;;;;17.80;52.16;100366.88;4957384;28;20109;-77
2021/12/02 09:59:51;;;;;;;3.13;0.98;;;;;;;17.80;52.17;100382.50;4957495;28;20045;-75
2021/12/02 10:02:20;;;;;;;1.83;0.98;;;;;;;17.80;52.16;100390.28;4958393;28;20049;-76
2021/12/02 10:04:54;;;;;;;1.80;1.00;;;;;;;17.79;52.05;100387.72;4957287;28;20034;-76
2021/12/02 10:07:37;;;;;;;1.67;0.82;;;;;;;17.78;52.51;100378.19;4974262;28;20047;-77
2021/12/02 10:12:43;;;;;;;2.75;1.13;;;;;;;17.77;52.03;100382.56;4972964;28;20110;-75
2021/12/02 10:15:13;;;;;;;2.53;1.25;;;;;;;17.77;52.26;100379.06;4957842;28;20042;-75
2021/12/02 10:17:43;;;;;;;1.95;0.98;;;;;;;17.76;52.08;100390.38;4942047;28;20131;-75
2021/12/02 10:23:47;;;;;;;2.60;0.98;;;;;;;17.78;52.36;100396.41;4976205;28;20066;-76
2021/12/02 10:26:06;;;;;;;1.98;0.85;;;;;;;17.76;51.91;100399.03;4974394;28;20038;-76
2021/12/02 10:28:41;;;;;;;2.03;0.93;;;;;;;17.76;52.13;100404.25;4976428;28;20035;-75
2021/12/02 10:31:07;;;;;;;3.28;0.90;;;;;;;17.76;52.10;100413.81;4976190;28;20121;-76
2021/12/02 10:33:34;;;;;;;1.27;0.77;;;;;;;17.76;52.13;100424.22;4979324;28;20129;-76
2021/12/02 10:36:01;;;;;;;1.63;0.70;;;;;;;17.75;51.97;100438.97;4977314;28;20071;-77
2021/12/02 10:38:43;;;;;;;1.50;0.80;;;;;;;17.76;51.70;100419.84;4976292;28;20460;-76
2021/12/02 10:41:24;;;;;;;1.50;0.70;;;;;;;17.78;52.10;100406.84;4975937;28;20058;-74
2021/12/02 10:44:24;;;;;;;1.95;0.90;;;;;;;17.76;51.85;100392.97;4975701;28;20035;-75
2021/12/02 10:46:57;;;;;;;1.88;0.80;;;;;;;17.77;51.75;100400.78;4975788;28;20497;-75
2021/12/02 10:49:25;;;;;;;1.67;0.80;;;;;;;17.79;51.67;100393.81;4975718;28;20043;-75
2021/12/02 10:51:56;;;;;;;1.67;0.75;;;;;;;17.81;51.79;100396.34;4975523;28;20035;-75
2021/12/02 10:54:25;;;;;;;2.30;0.95;;;;;;;17.82;52.00;100400.72;4975630;28;20043;-75
2021/12/02 10:56:53;;;;;;;1.90;0.88;;;;;;;17.82;51.76;100404.19;4975561;28;20030;-76
2021/12/02 10:59:33;;;;;;;3.45;0.82;;;;;;;17.82;51.75;100409.38;4975526;28;20440;-76
2021/12/02 11:02:17;;;;;;;1.60;0.80;;;;;;;17.82;51.81;100422.41;4976765;28;20037;-76
2021/12/02 11:04:46;;;;;;;2.78;0.90;;;;;;;17.82;51.44;100424.16;4975572;28;20037;-75
2021/12/02 11:07:19;;;;;;;2.00;0.90;;;;;;;17.82;51.47;100411.13;4975563;28;20432;-75
2021/12/02 11:09:45;;;;;;;2.38;1.10;;;;;;;17.80;51.78;100424.13;4960343;28;20457;-76
2021/12/02 11:12:21;;;;;;;1.48;0.80;;;;;;;17.79;51.61;100425.03;4943576;28;20069;-75
2021/12/02 11:14:59;;;;;;;1.77;0.82;;;;;;;17.79;51.55;100437.16;4976741;28;20039;-76
2021/12/02 11:17:29;;;;;;;1.65;0.80;;;;;;;17.77;51.77;100425.91;4975272;28;20384;-76
2021/12/02 11:19:57;;;;;;;1.50;0.80;;;;;;;17.77;51.70;100428.53;4959643;28;20038;-76
2021/12/02 11:22:25;;;;;;;1.13;0.70;;;;;;;17.77;51.47;100428.53;4975096;28;20031;-75
2021/12/02 11:24:51;;;;;;;1.45;0.68;;;;;;;17.76;51.85;100425.06;4976544;28;20043;-75
2021/12/02 11:27:25;;;;;;;1.17;0.70;;;;;;;17.75;51.39;100423.38;4975105;28;20085;-76
2021/12/02 11:30:14;;;;;;;1.75;0.77;;;;;;;17.77;51.49;100424.19;4975117;28;20436;-76
2021/12/02 11:32:53;;;;;;;1.85;0.70;;;;;;;17.80;51.43;100429.34;4974909;28;20037;-76
2021/12/02 11:35:23;;;;;;;1.52;0.75;;;;;;;17.81;51.16;100423.25;4974368;28;20034;-76
2021/12/02 11:37:56;;;;;;;2.20;0.90;;;;;;;17.84;51.49;100436.25;4974813;28;20043;-77
2021/12/02 11:40:25;;;;;;;1.73;0.90;;;;;;;17.89;51.53;100433.56;4974877;28;20035;-75
2021/12/02 11:42:52;;;;;;;3.30;0.80;;;;;;;17.94;51.09;100446.50;4976362;28;20617;-76
2021/12/02 11:45:20;;;;;;;1.58;0.80;;;;;;;17.93;51.33;100443.03;4974457;28;20141;-76
2021/12/02 11:47:46;;;;;;;2.60;1.00;;;;;;;17.96;51.18;100440.38;4974930;28;20077;-76
2021/12/02 11:50:15;;;;;;;1.77;0.90;;;;;;;17.99;51.23;100435.13;4958919;28;20062;-75
2021/12/02 11:52:42;;;;;;;1.77;0.93;;;;;;;18.03;51.37;100442.00;4974739;28;20035;-76
2021/12/02 11:55:11;;;;;;;2.42;0.98;;;;;;;18.06;51.00;100443.69;4974675;28;20097;-76
2021/12/02 11:57:37;;;;;;;2.13;0.90;;;;;;;18.10;51.07;100453.16;4974489;28;20036;-76
2021/12/02 12:00:06;;;;;;;1.85;0.85;;;;;;;18.13;51.49;100449.66;4974798;28;20030;-76
2021/12/02 12:02:31;;;;;;;1.75;0.80;;;;;;;18.12;51.20;100472.22;4974290;28;20034;-76
2021/12/02 12:05:01;;;;;;;1.02;0.70;;;;;;;18.14;51.50;100485.19;4974449;28;20109;-76
2021/12/02 12:07:39;;;;;;;2.15;0.80;;;;;;;18.17;51.16;100493.84;4975645;28;20026;-75
2021/12/02 12:10:21;;;;;;;3.47;0.70;;;;;;;18.20;51.03;100488.56;4974269;28;20045;-76
2021/12/02 12:12:49;;;;;;;1.88;0.90;;;;;;;18.19;51.06;100480.78;4974486;28;20393;-77
2021/12/02 12:15:39;;;;;;;1.65;0.70;;;;;;;18.20;51.19;100482.50;4975491;28;20027;-75
2021/12/02 12:18:07;;;;;;;1.02;0.68;;;;;;;18.22;51.03;100491.13;4974785;28;20039;-87
2021/12/02 12:20:56;;;;;;;1.40;0.90;;;;;;;18.23;50.94;100490.28;4975314;28;20122;-84
2021/12/02 12:24:02;;;;;;;1.38;0.70;;;;;;;18.27;50.88;100490.19;4974881;28;20388;-84
2021/12/02 12:26:32;;;;;;;1.77;0.90;;;;;;;18.29;50.69;100495.34;4974240;28;20035;-85
2021/12/02 12:29:06;;;;;;;1.60;0.70;;;;;;;18.29;50.91;100501.44;4974663;28;20042;-84
2021/12/02 12:31:42;;;;;;;1.65;0.90;;;;;;;18.30;51.08;100508.34;4974296;28;20038;-84
2021/12/02 12:36:56;;;;;;;1.13;0.73;;;;;;;18.25;51.26;100498.91;4975706;28;20046;-76
2021/12/02 12:39:23;;;;;;;1.67;0.80;;;;;;;18.24;51.35;100525.84;4957651;28;20098;-75
2021/12/02 12:42:17;;;;;;;1.02;0.70;;;;;;;18.23;51.12;100524.97;4973640;28;20093;-75
2021/12/02 12:44:54;;;;;;;3.00;0.90;;;;;;;18.19;51.43;100541.53;4973618;28;20047;-76
2021/12/02 12:47:42;;;;;;;2.13;0.70;;;;;;;18.18;51.42;100542.44;4957127;28;20300;-78
2021/12/02 12:50:31;;;;;;;1.83;0.85;;;;;;;18.18;51.55;100550.25;4973662;28;20042;-76
2021/12/02 12:53:06;;;;;;;2.67;0.70;;;;;;;18.16;51.33;100556.34;4973694;28;20046;-75
2021/12/02 12:55:55;;;;;;;1.77;0.90;;;;;;;18.15;51.46;100563.31;4973879;28;20081;-77
2021/12/02 12:58:25;;;;;;;1.83;0.88;;;;;;;18.15;51.56;100552.91;4973552;28;20038;-77
2021/12/02 13:00:50;;;;;;;0.80;0.70;;;;;;;18.15;51.33;100542.47;4973711;28;20501;-76
2021/12/02 13:03:22;;;;;;;1.15;0.65;;;;;;;18.18;51.53;100536.34;4973804;28;20129;-77
2021/12/02 13:05:55;;;;;;;1.48;0.70;;;;;;;18.18;51.39;100536.34;4973270;28;20062;-78
2021/12/02 13:08:26;;;;;;;2.03;0.85;;;;;;;18.19;51.48;100543.28;4973623;28;20122;-78
2021/12/02 13:10:59;;;;;;;1.50;0.82;;;;;;;18.18;51.26;100542.44;4975046;28;20034;-78
2021/12/02 13:13:30;;;;;;;1.70;0.70;;;;;;;18.19;51.30;100546.75;4973572;28;20100;-78
2021/12/02 13:16:10;;;;;;;2.35;0.60;;;;;;;18.20;50.86;100545.84;4973656;28;20023;-76
2021/12/02 13:18:39;;;;;;;1.27;0.60;;;;;;;18.20;50.89;100535.44;4973827;28;20084;-77
2021/12/02 13:21:20;;;;;;;1.55;0.73;;;;;;;18.25;51.02;100541.44;4975181;28;20039;-77
2021/12/02 13:23:57;;;;;;;1.60;0.90;;;;;;;18.27;50.76;100544.88;4973516;28;20043;-77
2021/12/02 13:26:25;;;;;;;1.90;0.90;;;;;;;18.28;50.61;100551.81;4973322;28;20070;-77
2021/12/02 13:28:53;;;;;;;1.50;0.60;;;;;;;18.31;50.70;100556.09;4973266;28;20043;-77
2021/12/02 13:31:21;;;;;;;2.20;0.50;;;;;;;18.33;50.66;100556.06;4973268;28;20085;-76
2021/12/02 13:34:02;;;;;;;1.23;0.80;;;;;;;18.35;50.41;100567.34;4957303;28;20042;-76
2021/12/02 13:36:43;;;;;;;0.95;0.60;;;;;;;18.35;50.59;100578.59;4973178;28;20560;-77
2021/12/02 13:39:21;;;;;;;2.20;0.80;;;;;;;18.36;50.53;100589.91;4972992;28;20477;-76
2021/12/02 13:42:11;;;;;;;0.77;0.57;;;;;;;18.36;50.55;100608.16;4973082;28;20027;-78
2021/12/02 13:44:45;;;;;;;1.70;0.77;;;;;;;18.33;50.51;100602.97;4963773;28;20089;-77
2021/12/02 13:47:23;;;;;;;2.10;0.80;;;;;;;18.32;50.65;100619.50;4972953;28;20066;-76
2021/12/02 13:49:54;;;;;;;0.95;0.52;;;;;;;18.30;50.77;100627.31;4972878;28;20346;-77
2021/12/02 13:52:41;;;;;;;1.63;0.70;;;;;;;18.29;50.70;100623.88;4974336;28;20034;-76
2021/12/02 13:55:15;;;;;;;0.85;0.60;;;;;;;18.28;50.46;100629.94;4973197;28;20027;-78
2021/12/02 13:57:48;;;;;;;1.10;0.60;;;;;;;18.28;50.56;100635.16;4975013;28;20083;-76
2021/12/02 14:00:26;;;;;;;1.83;0.75;;;;;;;18.28;50.63;100629.09;4961424;28;20030;-77
2021/12/02 14:02:55;;;;;;;1.08;0.63;;;;;;;18.27;50.55;100633.44;4976533;28;20039;-76
2021/12/02 14:05:26;;;;;;;0.63;0.50;;;;;;;18.27;50.49;100636.06;4976672;28;20034;-78
2021/12/02 14:07:54;;;;;;;1.15;0.70;;;;;;;18.26;50.65;100631.72;4976676;28;20101;-78
2021/12/02 14:10:22;;;;;;;0.98;0.70;;;;;;;18.28;50.60;100626.47;4976511;28;20038;-76
2021/12/02 14:13:06;;;;;;;1.38;0.68;;;;;;;18.26;50.66;100620.44;4976375;28;20027;-76
2021/12/02 14:15:33;;;;;;;0.80;0.50;;;;;;;18.25;50.62;100623.94;4976541;28;20109;-77
2021/12/02 14:18:04;;;;;;;1.08;0.60;;;;;;;18.25;50.49;100623.94;4977570;28;20034;-78
2021/12/02 14:20:39;;;;;;;1.77;0.63;;;;;;;18.23;50.57;100633.53;4976246;28;20473;-77
2021/12/02 14:23:28;;;;;;;0.93;0.70;;;;;;;18.18;50.60;100645.72;4976227;28;20085;-76
2021/12/02 14:26:18;;;;;;;1.10;0.60;;;;;;;18.15;50.59;100661.41;4964040;28;20426;-76
2021/12/02 14:28:49;;;;;;;1.20;0.70;;;;;;;18.12;50.94;100659.72;4976155;28;20117;-76
2021/12/02 14:31:30;;;;;;;0.88;0.43;;;;;;;18.11;50.81;100668.41;4976388;28;20097;-77
2021/12/02 14:33:58;;;;;;;1.17;0.60;;;;;;;18.11;50.89;100672.75;4977495;28;20026;-76
2021/12/02 14:36:25;;;;;;;1.92;0.55;;;;;;;18.09;50.89;100691.00;4976450;28;20039;-77
2021/12/02 14:39:06;;;;;;;0.80;0.50;;;;;;;18.05;50.88;100684.09;4960286;28;20035;-77
2021/12/02 14:41:38;;;;;;;1.08;0.60;;;;;;;18.04;51.05;100687.59;4976281;28;20054;-78
2021/12/02 14:44:03;;;;;;;1.00;0.50;;;;;;;18.03;51.04;100688.47;4976025;28;20129;-79
2021/12/02 14:46:39;;;;;;;0.88;0.52;;;;;;;18.01;51.08;100687.66;4976081;28;20126;-77
2021/12/02 14:49:09;;;;;;;0.90;0.50;;;;;;;18.01;51.32;100688.53;4976097;28;20497;-77
2021/12/02 14:51:49;;;;;;;2.30;0.70;;;;;;;18.00;50.84;100697.19;4976003;28;20038;-79
2021/12/02 14:54:35;;;;;;;1.77;0.80;;;;;;;17.98;51.07;100698.97;4975835;28;20489;-76
2021/12/02 14:57:04;;;;;;;1.38;0.60;;;;;;;17.99;50.93;100705.06;4975715;28;20042;-76
2021/12/02 14:59:32;;;;;;;1.88;0.63;;;;;;;17.97;51.19;100710.28;4976925;28;20038;-75
2021/12/02 15:02:10;;;;;;;1.50;0.60;;;;;;;17.96;50.85;100716.34;4959859;28;20089;-76
2021/12/02 15:04:51;;;;;;;0.98;0.60;;;;;;;17.96;50.86;100728.50;4975738;28;20039;-75
2021/12/02 15:07:44;;;;;;;0.80;0.60;;;;;;;17.95;50.62;100725.03;4975685;28;20061;-77
2021/12/02 15:10:13;;;;;;;1.20;0.68;;;;;;;17.93;51.02;100729.41;4974540;28;20562;-77
2021/12/02 15:12:42;;;;;;;1.42;0.60;;;;;;;17.94;51.02;100732.88;4976909;28;20041;-76
2021/12/02 15:15:10;;;;;;;1.35;0.70;;;;;;;17.92;50.98;100738.13;4944783;28;20557;-77
2021/12/02 15:17:58;;;;;;;3.40;0.70;;;;;;;17.92;50.95;100747.66;4975600;28;20121;-76
2021/12/02 15:20:31;;;;;;;1.60;0.60;;;;;;;17.91;50.97;100761.56;4975451;28;20039;-77
2021/12/02 15:23:20;;;;;;;0.80;0.55;;;;;;;17.89;50.92;100764.16;4976648;28;20042;-78
2021/12/02 15:26:04;;;;;;;1.45;0.60;;;;;;;17.89;51.13;100769.38;4976474;28;20478;-77
2021/12/02 15:28:30;;;;;;;;;;;;;;;17.87;50.84;100784.16;4975601;28;20069;-77
2021/12/02 15:31:03;;;;;;;0.85;0.50;;;;;;;17.89;51.04;100803.22;4959251;28;19914;-77
2021/12/02 15:33:30;;;;;;;1.37;0.47;;;;;;;17.86;51.03;100804.13;4975436;28;20128;-77
2021/12/02 15:35:58;;;;;;;1.08;0.60;;;;;;;17.85;50.74;100810.19;4975132;28;20531;-77
2021/12/02 15:38:25;;;;;;;1.38;0.80;;;;;;;17.87;50.92;100825.81;4959212;28;20133;-78
2021/12/02 15:40:52;;;;;;;1.63;0.68;;;;;;;17.86;50.95;100835.34;4974980;28;20129;-77
2021/12/02 15:43:31;;;;;;;1.23;0.68;;;;;;;17.86;51.04;100844.91;4974987;28;20462;-77
2021/12/02 15:45:58;;;;;;;1.35;0.55;;;;;;;17.88;50.72;100844.00;4974690;28;20047;-76
2021/12/02 15:48:24;;;;;;;1.02;0.60;;;;;;;17.91;50.93;100837.06;4974947;28;20031;-75
2021/12/02 15:50:51;;;;;;;1.92;0.63;;;;;;;17.93;50.69;100837.91;4974923;28;20038;-76
2021/12/02 15:53:17;;;;;;;1.10;0.65;;;;;;;17.94;50.48;100829.19;4974786;28;20034;-75
2021/12/02 15:55:45;;;;;;;1.27;0.70;;;;;;;17.96;50.75;100841.31;4974981;28;20503;-76
2021/12/02 15:58:12;;;;;;;0.88;0.55;;;;;;;17.98;50.67;100851.72;4958872;28;20493;-76
2021/12/02 16:00:42;;;;;;;1.33;0.70;;;;;;;17.98;50.21;100854.31;4959010;28;20049;-74
2021/12/02 16:03:16;;;;;;;1.85;0.70;;;;;;;17.97;50.45;100847.41;4974709;28;20114;-80
2021/12/02 16:08:42;;;;;;;2.78;0.60;;;;;;;17.99;50.34;100854.31;4977247;28;20491;-78
2021/12/02 16:13:33;;;;;;;2.80;0.60;;;;;;;18.02;50.17;100856.03;4974366;28;20125;-75
2021/12/02 16:15:59;;;;;;;1.85;0.75;;;;;;;18.00;50.36;100863.84;4942272;28;20073;-75
2021/12/02 16:18:25;;;;;;;1.88;0.60;;;;;;;18.02;50.21;100863.81;4958170;28;20035;-76
2021/12/02 16:20:51;;;;;;;0.82;0.50;;;;;;;18.03;50.52;100866.44;4942128;28;20034;-81
2021/12/02 16:23:16;;;;;;;2.03;0.75;;;;;;;18.03;50.47;100855.13;4973949;28;20035;-81
2021/12/02 16:25:41;;;;;;;1.50;0.40;;;;;;;18.03;50.35;100868.16;4957762;28;20122;-80
2021/12/02 16:28:07;;;;;;;1.27;0.60;;;;;;;18.02;50.29;100871.63;4957827;28;20106;-76
2021/12/02 16:30:35;;;;;;;2.05;0.60;;;;;;;18.03;50.58;100871.63;4941788;28;20042;-78
2021/12/02 16:33:03;;;;;;;5.38;0.70;;;;;;;18.04;50.43;100883.75;4958075;28;20114;-79
2021/12/02 16:35:33;;;;;;;1.55;0.70;;;;;;;18.08;50.42;100880.25;4942212;28;20035;-76
2021/12/02 16:37:58;;;;;;;6.43;0.68;;;;;;;18.11;50.43;100894.97;4957743;28;20544;-79
2021/12/02 16:40:29;;;;;;;7.03;0.90;;;;;;;18.14;50.58;100899.28;4957692;28;20085;-78
2021/12/02 16:43:01;;;;;;;3.67;0.77;;;;;;;18.07;50.90;100893.28;4975057;28;20035;-77
2021/12/02 16:45:31;;;;;;;4.32;0.70;;;;;;;18.03;50.80;100888.97;4974795;28;20046;-78
2021/12/02 16:47:57;;;;;;;1.02;0.50;;;;;;;18.00;50.90;100889.03;4973650;28;20165;-76
2021/12/02 16:50:23;;;;;;;3.05;0.70;;;;;;;17.99;50.92;100900.34;4958199;28;20512;-79
2021/12/02 16:52:51;;;;;;;2.78;0.80;;;;;;;17.97;51.06;100899.47;4957676;28;20054;-76
2021/12/02 16:55:18;;;;;;;5.47;0.63;;;;;;;17.98;51.02;100912.47;4973724;28;20126;-78
2021/12/02 16:57:44;;;;;;;2.88;0.70;;;;;;;17.96;50.92;100909.00;4973646;28;20061;-76
2021/12/02 17:00:13;;;;;;;2.25;0.52;;;;;;;17.96;50.76;100913.34;4957733;28;20488;-75
2021/12/02 17:02:39;;;;;;;1.75;0.73;;;;;;;17.96;50.68;100918.56;4973253;28;20066;-77
2021/12/02 17:05:07;;;;;;;3.45;0.63;;;;;;;17.96;50.80;100921.16;4941454;28;20114;-77
2021/12/02 17:07:32;;;;;;;2.65;0.60;;;;;;;17.95;50.83;100915.09;4973132;28;20137;-77
2021/12/02 17:09:58;;;;;;;1.92;0.70;;;;;;;17.96;50.91;100922.03;4957364;28;20091;-76
2021/12/02 17:12:24;;;;;;;1.20;0.63;;;;;;;17.96;50.93;100923.78;4957372;28;20046;-75
2021/12/02 17:14:52;;;;;;;1.98;0.80;;;;;;;17.95;50.79;100929.88;4973525;28;20602;-75
2021/12/02 17:17:18;;;;;;;1.77;0.73;;;;;;;17.95;50.97;100937.69;4957448;28;20473;-75
2021/12/02 17:19:46;;;;;;;3.45;0.60;;;;;;;17.96;50.80;100934.19;4973386;28;20046;-75
2021/12/02 17:22:13;;;;;;;1.73;0.70;;;;;;;17.96;50.39;100931.59;4957557;28;20071;-78
2021/12/02 17:24:39;;;;;;;1.38;0.63;;;;;;;17.94;50.75;100926.38;4973416;28;20035;-77
2021/12/02 17:27:07;;;;;;;2.78;0.77;;;;;;;17.95;50.64;100922.91;4957388;28;20382;-77
2021/12/02 17:29:34;;;;;;;1.40;0.70;;;;;;;17.95;51.06;100935.09;4957682;28;20093;-76
2021/12/02 17:32:00;;;;;;;1.10;0.60;;;;;;;17.95;50.43;100924.66;4974047;28;20034;-77
2021/12/02 17:34:26;;;;;;;2.65;0.95;;;;;;;17.96;50.76;100932.44;4961315;28;20508;-77
2021/12/02 17:36:51;;;;;;;1.13;0.70;;;;;;;17.97;50.93;100938.53;4945285;28;20031;-75
2021/12/02 17:39:16;;;;;;;1.33;0.65;;;;;;;17.96;50.79;100937.66;4977206;28;20097;-75
2021/12/02 17:41:42;;;;;;;1.33;0.70;;;;;;;17.96;50.92;100940.25;4944951;28;20050;-75